Hovedside
METAR-TAF:

METAR-TAF

Lufthavner :

Bermuda, Bermuda

breddegrad: 32-22N, lengdegrad: 064-41W, høyde over havet: 6 m

Gjeldene værobservasjon

Denne rapporten ble laget for 18 minutter siden, klokken 21:55 UTC
Vind 9 kt fra Sør-sørøst
Temperatur 25°C
Luftfuktighet 74%
Trykk 1021 hPa
Sikt 10 km eller mer
Få skyer i en høyde av 2300 ft

METAR: TXKF 232155Z 16009KT 9999 FEW023 25/20 Q1021

Tid: 19:13 (22:13 UTC)

Varsel

Denne rapporten ble laget for 4 timer og 43 minutter siden, klokken 17:30 UTC
Varsel gyldig fra 23. klokken 18 UTC til 24. klokken 18 UTC
Vind 10 kt fra Sør-sørøst
Sikt 10 km eller mer
Få skyer i en høyde av 3000 ft

TAF: TXKF 231730Z 2318/2418 16010KT 9999 FEW030

Værobservasjoner og værvarsel for over 4000 flyplasser (METAR- og TAF-rapporter).

Tilgjengelige stasjoner er representert av de røde og gule prikkene på kartet.

Hold musepekeren over prikken for å se navnet på stasjonen.

Klikk så for å se værobservasjoner og -varsler.

For å forandre kartet kan du klikke på den grønne knappen med svart kryss for å zoome inn, på den grønne knappen med strek for å zoome ut, eller på de grønne pilene for å se tilstøtende kart.


METAR-TAF: